KBIX/BIX METAR and TAF weather

Enter ICAO airport designator
Station Type Date Time Source
KBIX METAR 2022/01/29 09:56 UTC NOAA

KBIX 290956Z AUTO 36012KT 10SM CLR 02/M07 A3031 RMK AO2 SLP267 T00231066 $


Station Type Date Time Source
KBIX Decoded METAR 2022/01/29 09:56 UTC NOAA

Keesler Air Force Base / Biloxi, MS, United States (KBIX) 30-25N 088-55W
Jan 29, 2022 - 04:56 AM EST / 2022.01.29 0956 UTC
Wind: from the N (360 degrees) at 14 MPH (12 KT):0
Visibility: 10 mile(s):0
Sky conditions: clear
Temperature: 36.1 F (2.3 C)
Dew Point: 20.1 F (-6.6 C)
Relative Humidity: 51%
Pressure (altimeter): 30.31 in. Hg (1026 hPa)
ob: KBIX 290956Z AUTO 36012KT 10SM CLR 02/M07 A3031 RMK AO2 SLP267 T00231066
cycle: 10

Station Type Date Time Source
KBIX TAF 2022/01/29 06:59 UTC NOAA

TAF COR KBIX 290650Z 2906/3009 VRB06KT 9999 SKC QNH3028INS
BECMG 2911/2912 35012G18KT 9999 SKC QNH3032INS
BECMG 2921/2922 30008KT 9999 SKC QNH3029INS TX10/2920Z TN00/2912Z LAST NO
AMDS AFT 2907 NEXT 3111

Example: see airport list